createdAt,value
2018-02-14T00:00:40.073Z,68.40
2018-02-14T00:03:08.387Z,68.40
2018-02-14T00:05:37.457Z,68.30
2018-02-14T00:08:06.361Z,68.20
2018-02-14T00:10:33.897Z,69.10
2018-02-14T00:13:02.904Z,68.90
2018-02-14T00:15:30.866Z,68.40
2018-02-14T00:17:59.363Z,68.10
2018-02-14T00:20:28.453Z,68.20
2018-02-14T00:22:57.851Z,67.70
2018-02-14T00:25:27.368Z,67.60
2018-02-14T00:27:55.646Z,67.60
2018-02-14T00:30:24.609Z,67.70
2018-02-14T00:32:54.657Z,67.60
2018-02-14T00:35:39.639Z,67.60
2018-02-14T00:38:07.720Z,68.20
2018-02-14T00:40:36.474Z,68.10
2018-02-14T00:45:45.652Z,67.80
2018-02-14T00:48:15.035Z,68.00
2018-02-14T00:50:44.265Z,67.90
2018-02-14T00:53:12.649Z,67.50
2018-02-14T00:55:42.331Z,68.10
2018-02-14T00:58:11.259Z,68.00
2018-02-14T01:00:38.870Z,67.60
2018-02-14T01:03:06.406Z,67.80
2018-02-14T01:05:35.334Z,67.90
2018-02-14T01:08:03.029Z,67.10
2018-02-14T01:10:31.027Z,67.30
2018-02-14T01:12:59.578Z,67.60
2018-02-14T01:15:27.108Z,67.40
2018-02-14T01:17:55.503Z,67.30
2018-02-14T01:20:29.759Z,67.70
2018-02-14T01:22:57.316Z,67.20
2018-02-14T01:25:25.684Z,67.60
2018-02-14T01:27:53.714Z,67.50
2018-02-14T01:30:21.916Z,67.10
2018-02-14T01:32:49.506Z,67.00
2018-02-14T01:35:17.810Z,66.60
2018-02-14T01:37:45.412Z,66.50
2018-02-14T01:40:13.957Z,66.10
2018-02-14T01:42:41.506Z,66.20
2018-02-14T01:45:10.006Z,66.40
2018-02-14T01:47:37.680Z,65.90
2018-02-14T01:50:06.169Z,65.70
2018-02-14T01:52:33.776Z,65.60
2018-02-14T01:55:02.129Z,65.80
2018-02-14T01:57:29.761Z,65.80
2018-02-14T01:59:57.323Z,65.70
2018-02-14T02:02:24.894Z,65.30
2018-02-14T02:04:52.483Z,65.40
2018-02-14T02:07:20.112Z,65.10
2018-02-14T02:09:49.493Z,65.20
2018-02-14T02:12:19.155Z,65.30
2018-02-14T02:14:49.250Z,65.70
2018-02-14T02:17:17.599Z,65.70
2018-02-14T02:19:45.260Z,65.50
2018-02-14T02:22:14.292Z,65.20
2018-02-14T02:24:43.187Z,65.10
2018-02-14T02:27:11.640Z,64.90
2018-02-14T02:29:40.580Z,64.90
2018-02-14T02:32:09.834Z,64.60
2018-02-14T02:34:38.802Z,64.60
2018-02-14T02:37:09.069Z,64.80
2018-02-14T02:39:49.376Z,64.20
2018-02-14T02:42:20.874Z,63.90
2018-02-14T02:44:50.822Z,63.80
2018-02-14T02:47:19.234Z,64.00
2018-02-14T02:49:47.492Z,63.90
2018-02-14T02:52:16.329Z,64.00
2018-02-14T02:54:44.739Z,64.00
2018-02-14T02:57:13.564Z,64.50
2018-02-14T02:59:42.102Z,64.20
2018-02-14T03:02:09.700Z,64.00
2018-02-14T03:04:39.617Z,64.20
2018-02-14T03:07:08.096Z,64.20
2018-02-14T03:09:37.322Z,64.20
2018-02-14T03:12:05.610Z,64.10
2018-02-14T03:14:34.262Z,64.40
2018-02-14T03:17:02.620Z,64.50
2018-02-14T03:19:30.173Z,64.50
2018-02-14T03:21:58.413Z,64.30
2018-02-14T03:24:28.625Z,64.00
2018-02-14T03:26:56.562Z,63.40
2018-02-14T03:29:24.900Z,63.50
2018-02-14T03:31:54.506Z,63.10
2018-02-14T03:34:24.104Z,63.70
2018-02-14T03:36:52.336Z,63.40
2018-02-14T03:39:19.862Z,63.90
2018-02-14T03:41:47.394Z,63.70
2018-02-14T03:44:15.995Z,63.50
2018-02-14T03:46:43.537Z,63.50
2018-02-14T03:49:11.434Z,63.80
2018-02-14T03:51:39.020Z,63.80
2018-02-14T03:54:08.477Z,63.80
2018-02-14T03:56:36.858Z,63.60
2018-02-14T03:59:04.459Z,63.60
2018-02-14T04:01:32.056Z,63.10
2018-02-14T04:03:59.586Z,63.00
2018-02-14T04:06:27.154Z,63.80
2018-02-14T04:08:54.727Z,64.20
2018-02-14T04:11:23.086Z,63.70
2018-02-14T04:13:50.673Z,63.70
2018-02-14T04:16:18.255Z,64.20
2018-02-14T04:18:46.452Z,64.90
2018-02-14T04:21:14.632Z,64.80
2018-02-14T04:23:42.254Z,64.70
2018-02-14T04:26:09.815Z,64.50
2018-02-14T04:28:37.396Z,64.50
2018-02-14T04:31:04.962Z,64.10
2018-02-14T04:33:32.570Z,64.20
2018-02-14T04:36:00.149Z,64.10
2018-02-14T04:38:27.696Z,64.40
2018-02-14T04:40:56.058Z,64.00
2018-02-14T04:43:23.595Z,63.90
2018-02-14T04:45:51.840Z,64.20
2018-02-14T04:48:19.431Z,63.90
2018-02-14T04:50:47.770Z,64.60
2018-02-14T04:53:15.596Z,63.60
2018-02-14T04:55:43.131Z,63.70
2018-02-14T04:58:10.683Z,63.70
2018-02-14T05:00:38.218Z,63.60
2018-02-14T05:03:05.837Z,63.50
2018-02-14T05:05:34.874Z,64.20
2018-02-14T05:08:03.671Z,64.20
2018-02-14T05:10:31.237Z,64.50
2018-02-14T05:13:00.050Z,64.30
2018-02-14T05:15:27.590Z,64.10
2018-02-14T05:17:55.161Z,63.60
2018-02-14T05:20:22.744Z,63.70
2018-02-14T05:22:50.284Z,63.10
2018-02-14T05:25:17.854Z,63.20
2018-02-14T05:27:46.191Z,62.60
2018-02-14T05:30:14.188Z,62.50
2018-02-14T05:32:41.756Z,63.00
2018-02-14T05:35:09.352Z,62.90
2018-02-14T05:37:36.920Z,62.50
2018-02-14T05:40:05.589Z,62.20
2018-02-14T05:42:33.167Z,62.80
2018-02-14T05:45:00.751Z,61.40
2018-02-14T05:47:28.344Z,61.90
2018-02-14T05:49:56.820Z,62.10
2018-02-14T05:52:24.390Z,62.00
2018-02-14T05:54:51.986Z,61.90
2018-02-14T05:57:19.539Z,61.80
2018-02-14T05:59:47.170Z,61.40
2018-02-14T06:02:14.761Z,61.50
2018-02-14T06:04:42.276Z,61.30
2018-02-14T06:07:09.846Z,61.10
2018-02-14T06:09:37.417Z,61.60
2018-02-14T06:12:04.969Z,61.20
2018-02-14T06:14:32.543Z,61.50
2018-02-14T06:17:00.134Z,61.40
2018-02-14T06:19:28.479Z,61.60
2018-02-14T06:21:56.106Z,61.50
2018-02-14T06:24:24.836Z,60.90
2018-02-14T06:26:53.244Z,60.80
2018-02-14T06:29:22.322Z,61.60
2018-02-14T06:31:50.144Z,60.90
2018-02-14T06:34:17.720Z,61.10
2018-02-14T06:36:45.338Z,61.50
2018-02-14T06:39:12.861Z,60.30
2018-02-14T06:41:40.488Z,60.30
2018-02-14T06:44:08.035Z,60.70
2018-02-14T06:46:36.891Z,60.30
2018-02-14T06:49:04.525Z,60.30
2018-02-14T06:51:32.128Z,60.20
2018-02-14T06:54:00.352Z,60.10
2018-02-14T06:56:27.925Z,60.20
2018-02-14T06:58:55.637Z,60.40
2018-02-14T07:01:23.635Z,59.90
2018-02-14T07:03:51.695Z,60.50
2018-02-14T07:06:19.335Z,60.40
2018-02-14T07:08:46.934Z,60.00
2018-02-14T07:11:14.490Z,60.40
2018-02-14T07:13:42.073Z,60.40
2018-02-14T07:16:09.614Z,59.90
2018-02-14T07:18:37.235Z,59.60
2018-02-14T07:21:04.790Z,60.00
2018-02-14T07:23:33.879Z,59.50
2018-02-14T07:26:01.489Z,59.50
2018-02-14T07:28:29.112Z,59.50
2018-02-14T07:30:59.747Z,60.40
2018-02-14T07:33:27.360Z,60.40
2018-02-14T07:35:54.998Z,60.30
2018-02-14T07:38:22.550Z,60.30
2018-02-14T07:40:50.140Z,60.10
2018-02-14T07:43:17.684Z,59.90
2018-02-14T07:45:46.017Z,59.50
2018-02-14T07:48:13.611Z,59.30
2018-02-14T07:50:41.194Z,59.90
2018-02-14T07:53:08.907Z,59.20
2018-02-14T07:55:36.447Z,59.80
2018-02-14T07:58:04.735Z,59.80
2018-02-14T08:00:32.295Z,59.70
2018-02-14T08:02:59.851Z,59.00
2018-02-14T08:05:27.415Z,58.70
2018-02-14T08:07:54.948Z,58.50
2018-02-14T08:10:23.063Z,58.50
2018-02-14T08:12:50.736Z,58.50
2018-02-14T08:15:18.409Z,58.40
2018-02-14T08:17:45.943Z,58.40
2018-02-14T08:20:14.301Z,58.50
2018-02-14T08:22:42.095Z,58.30
2018-02-14T08:25:10.366Z,58.20
2018-02-14T08:27:37.919Z,58.40
2018-02-14T08:30:05.634Z,58.50
2018-02-14T08:32:33.206Z,58.60
2018-02-14T08:35:00.768Z,58.40
2018-02-14T08:37:28.349Z,58.00
2018-02-14T08:39:56.863Z,57.70
2018-02-14T08:42:24.460Z,57.80
2018-02-14T08:44:52.194Z,58.40
2018-02-14T08:47:20.556Z,57.90
2018-02-14T08:49:48.156Z,57.90
2018-02-14T08:52:16.400Z,57.50
2018-02-14T08:54:43.962Z,57.80
2018-02-14T08:57:11.533Z,57.50
2018-02-14T08:59:39.873Z,57.30
2018-02-14T09:02:07.436Z,57.30
2018-02-14T09:04:34.964Z,57.20
2018-02-14T09:07:02.547Z,56.80
2018-02-14T09:09:30.118Z,56.50
2018-02-14T09:11:57.696Z,57.70
2018-02-14T09:14:25.227Z,57.40
2018-02-14T09:16:53.327Z,56.80
2018-02-14T09:19:21.581Z,56.80
2018-02-14T09:21:49.131Z,56.30
2018-02-14T09:24:16.706Z,56.00
2018-02-14T09:26:44.222Z,55.90
2018-02-14T09:29:12.548Z,55.80
2018-02-14T09:31:40.258Z,55.80
2018-02-14T09:34:08.585Z,55.90
2018-02-14T09:36:36.124Z,55.90
2018-02-14T09:39:03.834Z,55.60
2018-02-14T09:41:31.394Z,55.80
2018-02-14T09:43:58.969Z,55.60
2018-02-14T09:46:26.494Z,55.70
2018-02-14T09:48:54.095Z,55.70
2018-02-14T09:51:21.660Z,56.30
2018-02-14T09:53:49.273Z,56.10
2018-02-14T09:56:16.816Z,55.50
2018-02-14T09:58:44.388Z,55.30
2018-02-14T10:01:11.945Z,55.20
2018-02-14T10:03:39.560Z,55.20
2018-02-14T10:06:07.102Z,55.10
2018-02-14T10:08:34.674Z,54.90
2018-02-14T10:11:02.241Z,54.90
2018-02-14T10:13:29.836Z,55.20
2018-02-14T10:15:57.394Z,55.20
2018-02-14T10:18:24.981Z,55.30
2018-02-14T10:20:52.523Z,55.40
2018-02-14T10:23:20.082Z,55.30
2018-02-14T10:25:47.639Z,55.00
2018-02-14T10:28:15.726Z,55.10
2018-02-14T10:30:43.288Z,54.80
2018-02-14T10:33:10.881Z,54.60
2018-02-14T10:35:39.279Z,54.30
2018-02-14T10:38:07.717Z,54.30
2018-02-14T10:40:35.367Z,54.60
2018-02-14T10:43:02.969Z,54.10
2018-02-14T10:45:30.543Z,54.40
2018-02-14T10:47:58.098Z,54.50
2018-02-14T10:50:25.925Z,54.40
2018-02-14T10:52:53.482Z,54.30
2018-02-14T10:55:21.062Z,54.00
2018-02-14T10:57:48.651Z,54.10
2018-02-14T11:00:16.711Z,54.20
2018-02-14T11:02:50.024Z,54.00
2018-02-14T11:05:24.074Z,53.80
2018-02-14T11:07:51.667Z,53.70
2018-02-14T11:10:19.196Z,53.40
2018-02-14T11:12:46.737Z,53.60
2018-02-14T11:15:14.898Z,54.00
2018-02-14T11:17:42.568Z,53.90
2018-02-14T11:20:10.286Z,54.40
2018-02-14T11:22:37.863Z,53.90
2018-02-14T11:25:06.302Z,53.80
2018-02-14T11:27:33.894Z,53.90
2018-02-14T11:30:03.008Z,53.50
2018-02-14T11:32:32.109Z,53.60
2018-02-14T11:35:00.469Z,53.60
2018-02-14T11:37:28.059Z,53.50
2018-02-14T11:39:56.354Z,53.90
2018-02-14T11:42:23.925Z,53.90
2018-02-14T11:44:52.364Z,53.00
2018-02-14T11:47:19.961Z,52.60
2018-02-14T11:49:48.227Z,52.00
2018-02-14T11:52:15.889Z,51.90
2018-02-14T11:54:43.480Z,52.40
2018-02-14T11:57:11.105Z,52.50
2018-02-14T11:59:39.229Z,52.70
2018-02-14T12:02:06.761Z,52.90
2018-02-14T12:04:34.360Z,53.20
2018-02-14T12:07:02.521Z,53.10
2018-02-14T12:09:30.117Z,53.20
2018-02-14T12:11:58.457Z,53.30
2018-02-14T12:14:25.987Z,53.30
2018-02-14T12:16:53.605Z,52.60
2018-02-14T12:19:21.478Z,53.10
2018-02-14T12:21:49.010Z,52.50
2018-02-14T12:24:16.602Z,52.50
2018-02-14T12:26:44.916Z,50.50
2018-02-14T12:29:14.765Z,50.40
2018-02-14T12:31:43.226Z,50.20
2018-02-14T12:34:11.312Z,50.20
2018-02-14T12:36:39.126Z,50.40
2018-02-14T12:39:07.478Z,50.80
2018-02-14T12:41:35.073Z,50.80
2018-02-14T12:44:03.891Z,51.10
2018-02-14T12:46:31.498Z,51.40
2018-02-14T12:48:59.739Z,51.90
2018-02-14T12:51:28.347Z,51.80
2018-02-14T12:53:56.355Z,51.90
2018-02-14T12:56:24.796Z,52.20
2018-02-14T12:58:52.362Z,52.20
2018-02-14T13:01:19.944Z,52.00
2018-02-14T13:03:50.715Z,52.20
2018-02-14T13:06:18.300Z,52.40
2018-02-14T13:08:47.008Z,52.00
2018-02-14T13:11:14.761Z,52.00
2018-02-14T13:13:42.345Z,52.20
2018-02-14T13:16:09.918Z,52.30
2018-02-14T13:18:38.380Z,52.60
2018-02-14T13:21:05.916Z,52.60
2018-02-14T13:23:33.602Z,52.90
2018-02-14T13:26:01.144Z,53.20
2018-02-14T13:28:29.301Z,53.30
2018-02-14T13:30:57.028Z,53.30
2018-02-14T13:33:25.327Z,53.70
2018-02-14T13:35:53.674Z,53.70
2018-02-14T13:38:22.052Z,53.60
2018-02-14T13:40:49.665Z,53.60
2018-02-14T13:43:17.275Z,53.40
2018-02-14T13:45:45.309Z,53.10
2018-02-14T13:48:12.854Z,53.70
2018-02-14T13:50:41.154Z,53.80
2018-02-14T13:53:08.758Z,53.30
2018-02-14T13:55:37.122Z,52.70
2018-02-14T13:58:04.714Z,52.70
2018-02-14T14:00:32.265Z,52.20
2018-02-14T14:03:00.171Z,52.10
2018-02-14T14:05:28.730Z,51.90
2018-02-14T14:07:59.233Z,51.60
2018-02-14T14:10:27.725Z,51.10
2018-02-14T14:12:56.309Z,50.60
2018-02-14T14:15:26.061Z,50.40
2018-02-14T14:17:55.251Z,50.50
2018-02-14T14:20:24.251Z,50.80
2018-02-14T14:22:54.466Z,51.10
2018-02-14T14:25:24.897Z,50.80
2018-02-14T14:27:55.347Z,50.70
2018-02-14T14:30:25.143Z,50.90
2018-02-14T14:32:54.724Z,50.60
2018-02-14T14:35:24.940Z,50.60
2018-02-14T14:37:54.040Z,49.70
2018-02-14T14:40:22.444Z,49.50
2018-02-14T14:42:51.365Z,49.80
2018-02-14T14:45:20.991Z,49.90
2018-02-14T14:47:50.082Z,49.60
2018-02-14T14:50:18.881Z,50.20
2018-02-14T14:52:49.283Z,50.20
2018-02-14T14:55:18.320Z,50.20
2018-02-14T14:57:47.819Z,50.20
2018-02-14T15:00:15.352Z,50.20
2018-02-14T15:02:43.410Z,49.70
2018-02-14T15:05:11.117Z,49.90
2018-02-14T15:07:38.666Z,49.90
2018-02-14T15:10:07.938Z,50.40
2018-02-14T15:12:35.585Z,50.40
2018-02-14T15:15:03.898Z,50.80
2018-02-14T15:17:31.481Z,51.30
2018-02-14T15:19:59.185Z,51.60
2018-02-14T15:22:27.067Z,52.60
2018-02-14T15:24:54.598Z,52.90
2018-02-14T15:27:22.140Z,52.90
2018-02-14T15:29:50.532Z,53.10
2018-02-14T15:32:18.068Z,53.10
2018-02-14T15:34:45.682Z,52.90
2018-02-14T15:37:13.210Z,52.80
2018-02-14T15:39:40.734Z,52.40
2018-02-14T15:42:09.098Z,52.30
2018-02-14T15:44:36.703Z,52.00
2018-02-14T15:47:04.343Z,51.90
2018-02-14T15:49:31.919Z,51.30
2018-02-14T15:51:59.472Z,51.40
2018-02-14T15:54:27.168Z,51.30
2018-02-14T15:56:54.692Z,51.20
2018-02-14T15:59:23.006Z,51.50
2018-02-14T16:01:50.572Z,51.40
2018-02-14T16:04:18.167Z,51.60
2018-02-14T16:06:45.784Z,51.30
2018-02-14T16:09:13.310Z,51.80
2018-02-14T16:11:42.372Z,52.00
2018-02-14T16:14:09.972Z,52.00
2018-02-14T16:16:38.658Z,52.20
2018-02-14T16:19:07.658Z,51.70
2018-02-14T16:21:35.959Z,52.10
2018-02-14T16:24:04.288Z,52.10
2018-02-14T16:26:32.762Z,52.30
2018-02-14T16:29:00.296Z,52.30
2018-02-14T16:31:27.844Z,52.60
2018-02-14T16:33:55.510Z,53.30
2018-02-14T16:36:23.272Z,53.00
2018-02-14T16:38:50.889Z,53.70
2018-02-14T16:41:18.520Z,54.40
2018-02-14T16:43:46.059Z,54.90
2018-02-14T16:46:13.639Z,55.80
2018-02-14T16:48:41.319Z,56.40
2018-02-14T16:51:08.873Z,56.80
2018-02-14T16:53:36.422Z,57.60
2018-02-14T16:56:04.038Z,58.30
2018-02-14T16:58:31.589Z,58.80
2018-02-14T17:00:59.301Z,59.20
2018-02-14T17:03:27.058Z,59.70
2018-02-14T17:05:55.495Z,60.20
2018-02-14T17:08:23.047Z,60.50
2018-02-14T17:10:51.464Z,62.10
2018-02-14T17:13:19.035Z,62.10
2018-02-14T17:15:46.622Z,62.20
2018-02-14T17:18:14.208Z,62.30
2018-02-14T17:20:42.746Z,62.90
2018-02-14T17:23:10.282Z,62.90
2018-02-14T17:25:37.859Z,63.00
2018-02-14T17:28:06.669Z,63.30
2018-02-14T17:30:34.225Z,62.50
2018-02-14T17:33:01.863Z,62.50
2018-02-14T17:35:29.424Z,63.20
2018-02-14T17:37:56.997Z,63.50
2018-02-14T17:40:25.924Z,63.70
2018-02-14T17:42:53.577Z,64.20
2018-02-14T17:45:22.273Z,65.60
2018-02-14T17:47:50.598Z,65.80
2018-02-14T17:50:18.365Z,65.80
2018-02-14T17:52:46.346Z,66.90
2018-02-14T17:55:13.878Z,66.70
2018-02-14T17:57:41.423Z,65.90
2018-02-14T18:00:09.464Z,66.00
2018-02-14T18:02:37.165Z,66.00
2018-02-14T18:05:06.412Z,66.00
2018-02-14T18:07:33.950Z,65.90
2018-02-14T18:10:01.561Z,65.30
2018-02-14T18:12:29.188Z,65.10
2018-02-14T18:14:57.767Z,65.10
2018-02-14T18:17:26.567Z,64.70
2018-02-14T18:19:54.193Z,65.40
2018-02-14T18:22:22.640Z,65.50
2018-02-14T18:24:50.195Z,65.10
2018-02-14T18:27:18.224Z,65.00
2018-02-14T18:29:45.772Z,65.10
2018-02-14T18:32:13.416Z,64.60
2018-02-14T18:34:42.367Z,64.60
2018-02-14T18:37:10.297Z,64.60
2018-02-14T18:39:38.464Z,64.20
2018-02-14T18:42:06.006Z,64.30
2018-02-14T18:44:33.578Z,63.80
2018-02-14T18:47:01.606Z,63.20
2018-02-14T18:49:29.299Z,63.00
2018-02-14T18:51:56.915Z,63.00
2018-02-14T18:54:24.555Z,62.30
2018-02-14T18:56:52.100Z,61.70
2018-02-14T18:59:19.713Z,60.80
2018-02-14T19:01:47.254Z,59.90
2018-02-14T19:04:14.843Z,60.50
2018-02-14T19:06:42.406Z,60.20
2018-02-14T19:09:09.945Z,60.30
2018-02-14T19:11:37.532Z,60.20
2018-02-14T19:14:05.810Z,59.70
2018-02-14T19:16:33.545Z,59.80
2018-02-14T19:19:01.369Z,59.50
2018-02-14T19:21:29.547Z,59.90
2018-02-14T19:23:57.922Z,59.30
2018-02-14T19:26:25.662Z,59.20
2018-02-14T19:28:53.285Z,59.20
2018-02-14T19:31:20.904Z,58.80
2018-02-14T19:33:49.279Z,58.30
2018-02-14T19:36:16.870Z,58.30
2018-02-14T19:38:45.153Z,58.50
2018-02-14T19:41:13.944Z,58.20
2018-02-14T19:43:41.835Z,58.20
2018-02-14T19:46:09.627Z,57.70
2018-02-14T19:48:37.241Z,57.40
2018-02-14T19:51:05.665Z,56.80
2018-02-14T19:53:33.244Z,56.90
2018-02-14T19:56:01.631Z,57.10
2018-02-14T19:58:30.049Z,57.10
2018-02-14T20:00:57.624Z,57.10
2018-02-14T20:03:25.179Z,57.10
2018-02-14T20:05:53.085Z,57.10
2018-02-14T20:08:21.572Z,57.50
2018-02-14T20:10:49.910Z,56.90
2018-02-14T20:13:17.803Z,56.90
2018-02-14T20:15:45.614Z,57.50
2018-02-14T20:18:13.205Z,57.30
2018-02-14T20:20:41.697Z,57.20
2018-02-14T20:23:09.287Z,57.00
2018-02-14T20:25:36.946Z,57.10
2018-02-14T20:28:04.997Z,57.80
2018-02-14T20:30:33.660Z,57.60
2018-02-14T20:33:01.711Z,57.40
2018-02-14T20:35:29.273Z,57.20
2018-02-14T20:37:57.632Z,57.10
2018-02-14T20:40:26.680Z,56.60
2018-02-14T20:42:54.283Z,56.50
2018-02-14T20:45:21.913Z,56.40
2018-02-14T20:47:50.281Z,56.10
2018-02-14T20:50:18.702Z,56.30
2018-02-14T20:52:47.025Z,56.20
2018-02-14T20:55:14.788Z,56.20
2018-02-14T20:57:42.329Z,55.90
2018-02-14T21:00:10.666Z,56.10
2018-02-14T21:02:38.305Z,55.90
2018-02-14T21:05:07.025Z,56.10
2018-02-14T21:07:35.404Z,55.90
2018-02-14T21:10:05.304Z,56.40
2018-02-14T21:12:32.884Z,56.40
2018-02-14T21:15:00.988Z,56.20
2018-02-14T21:17:28.902Z,56.10
2018-02-14T21:19:56.484Z,56.00
2018-02-14T21:22:24.832Z,56.20
2018-02-14T21:24:53.210Z,56.10
2018-02-14T21:27:20.882Z,56.30
2018-02-14T21:29:48.586Z,56.10
2018-02-14T21:32:17.134Z,56.50
2018-02-14T21:34:44.734Z,56.50
2018-02-14T21:37:12.302Z,56.60
2018-02-14T21:39:40.676Z,56.20
2018-02-14T21:42:08.295Z,56.20
2018-02-14T21:44:37.534Z,55.80
2018-02-14T21:47:05.178Z,55.80
2018-02-14T21:49:34.010Z,56.30
2018-02-14T21:52:01.596Z,56.20
2018-02-14T21:54:29.128Z,56.10
2018-02-14T21:56:56.776Z,55.80
2018-02-14T21:59:24.364Z,55.90
2018-02-14T22:01:52.065Z,55.60
2018-02-14T22:04:19.648Z,55.40
2018-02-14T22:06:47.966Z,55.70
2018-02-14T22:09:16.193Z,55.70
2018-02-14T22:11:44.528Z,55.80
2018-02-14T22:14:12.303Z,55.60
2018-02-14T22:16:39.926Z,55.20
2018-02-14T22:19:07.536Z,55.30
2018-02-14T22:21:35.135Z,55.30
2018-02-14T22:24:03.055Z,55.30
2018-02-14T22:26:31.104Z,55.60
2018-02-14T22:28:58.966Z,55.60
2018-02-14T22:31:26.574Z,55.90
2018-02-14T22:33:54.270Z,56.40
2018-02-14T22:36:21.957Z,56.30
2018-02-14T22:38:49.506Z,56.70
2018-02-14T22:41:17.125Z,56.50
2018-02-14T22:43:44.732Z,56.30
2018-02-14T22:46:12.341Z,55.90
2018-02-14T22:48:40.582Z,56.00
2018-02-14T22:51:08.200Z,55.90
2018-02-14T22:53:36.223Z,55.70
2018-02-14T22:56:04.536Z,55.60
2018-02-14T22:58:33.010Z,55.30
2018-02-14T23:01:00.844Z,55.20
2018-02-14T23:03:28.622Z,55.30
2018-02-14T23:05:56.166Z,55.30
2018-02-14T23:08:23.738Z,55.30
2018-02-14T23:10:52.048Z,55.40
2018-02-14T23:13:32.626Z,55.30
2018-02-14T23:16:01.256Z,55.90
2018-02-14T23:18:28.809Z,55.90
2018-02-14T23:20:56.532Z,55.70
2018-02-14T23:23:26.497Z,55.60
2018-02-14T23:25:54.095Z,55.50
2018-02-14T23:28:21.861Z,55.80
2018-02-14T23:30:49.592Z,56.10
2018-02-14T23:33:17.285Z,56.00
2018-02-14T23:35:44.934Z,56.00
2018-02-14T23:38:12.510Z,55.80
2018-02-14T23:40:40.311Z,56.10
2018-02-14T23:43:10.535Z,56.30
2018-02-14T23:45:38.309Z,56.20
2018-02-14T23:48:06.905Z,56.20
2018-02-14T23:50:34.654Z,56.30
2018-02-14T23:53:02.305Z,56.10
2018-02-14T23:55:30.609Z,55.80
2018-02-14T23:57:58.191Z,56.10
